createdAt,value
2019-01-25T00:01:23.784Z,97647.55
2019-01-25T00:03:54.760Z,97647.89
2019-01-25T00:06:26.698Z,97636.02
2019-01-25T00:08:58.054Z,97638.98
2019-01-25T00:11:29.440Z,97645.39
2019-01-25T00:14:02.291Z,97636.55
2019-01-25T00:16:33.642Z,97636.34
2019-01-25T00:19:04.860Z,97648.41
2019-01-25T00:21:36.618Z,97643.06
2019-01-25T00:24:10.637Z,97647.55
2019-01-25T00:26:42.016Z,97649.07
2019-01-25T00:29:13.028Z,97649.70
2019-01-25T00:31:44.290Z,97648.06
2019-01-25T00:34:15.296Z,97661.14
2019-01-25T00:36:46.707Z,97662.29
2019-01-25T00:39:19.027Z,97654.37
2019-01-25T00:41:50.484Z,97665.41
2019-01-25T00:44:22.600Z,97661.28
2019-01-25T00:46:53.905Z,97670.72
2019-01-25T00:49:25.232Z,97667.08
2019-01-25T00:51:56.398Z,97663.44
2019-01-25T00:54:27.850Z,97663.58
2019-01-25T00:56:59.058Z,97663.78
2019-01-25T00:59:30.755Z,97661.80
2019-01-25T01:02:03.219Z,97655.88
2019-01-25T01:04:35.966Z,97655.11
2019-01-25T01:07:07.316Z,97656.56
2019-01-25T01:09:38.716Z,97655.27
2019-01-25T01:12:09.833Z,97661.35
2019-01-25T01:14:42.047Z,97660.37
2019-01-25T01:17:13.861Z,97661.52
2019-01-25T01:19:45.959Z,97658.23
2019-01-25T01:22:17.081Z,97659.06
2019-01-25T01:24:48.288Z,97668.47
2019-01-25T01:27:19.714Z,97668.61
2019-01-25T01:29:51.033Z,97668.16
2019-01-25T01:32:22.165Z,97656.42
2019-01-25T01:34:54.129Z,97668.64
2019-01-25T01:37:26.449Z,97663.88
2019-01-25T01:39:57.967Z,97659.41
2019-01-25T01:42:30.533Z,97658.23
2019-01-25T01:45:02.505Z,97659.06
2019-01-25T01:47:33.754Z,97655.63
2019-01-25T01:50:07.587Z,97644.23
2019-01-25T01:52:38.912Z,97651.64
2019-01-25T01:55:11.483Z,97649.23
2019-01-25T01:57:46.255Z,97641.63
2019-01-25T02:00:28.883Z,97647.22
2019-01-25T02:03:00.354Z,97646.73
2019-01-25T02:05:32.800Z,97639.30
2019-01-25T02:08:04.118Z,97645.76
2019-01-25T02:10:35.832Z,97647.59
2019-01-25T02:13:07.200Z,97650.23
2019-01-25T02:15:38.572Z,97646.30
2019-01-25T02:18:10.783Z,97643.95
2019-01-25T02:20:41.975Z,97642.98
2019-01-25T02:23:14.042Z,97639.50
2019-01-25T02:25:45.653Z,97652.87
2019-01-25T02:28:16.790Z,97647.77
2019-01-25T02:30:48.040Z,97639.50
2019-01-25T02:33:19.282Z,97639.02
2019-01-25T02:35:50.722Z,97643.29
2019-01-25T02:38:21.931Z,97644.95
2019-01-25T02:40:53.046Z,97641.46
2019-01-25T02:43:24.389Z,97638.50
2019-01-25T02:45:55.752Z,97634.40
2019-01-25T02:48:27.006Z,97633.08
2019-01-25T02:50:58.615Z,97637.38
2019-01-25T02:53:29.830Z,97642.00
2019-01-25T02:56:01.313Z,97641.97
2019-01-25T02:58:33.111Z,97646.94
2019-01-25T03:01:04.754Z,97638.22
2019-01-25T03:03:36.796Z,97638.05
2019-01-25T03:06:08.087Z,97643.80
2019-01-25T03:08:39.450Z,97651.89
2019-01-25T03:11:10.854Z,97647.61
2019-01-25T03:13:43.770Z,97652.26
2019-01-25T03:16:15.039Z,97645.66
2019-01-25T03:18:46.284Z,97651.72
2019-01-25T03:21:17.508Z,97653.58
2019-01-25T03:23:48.617Z,97660.66
2019-01-25T03:26:20.288Z,97654.90
2019-01-25T03:28:51.550Z,97656.22
2019-01-25T03:31:22.852Z,97650.40
2019-01-25T03:33:54.231Z,97654.53
2019-01-25T03:36:26.492Z,97659.34
2019-01-25T03:38:57.679Z,97653.75
2019-01-25T03:41:29.271Z,97654.23
2019-01-25T03:44:00.443Z,97651.25
2019-01-25T03:46:33.236Z,97658.19
2019-01-25T03:49:04.412Z,97651.94
2019-01-25T03:51:36.374Z,97654.72
2019-01-25T03:54:08.720Z,97649.77
2019-01-25T03:56:41.319Z,97654.58
2019-01-25T03:59:12.602Z,97652.73
2019-01-25T04:01:45.185Z,97655.03
2019-01-25T04:04:16.479Z,97648.27
2019-01-25T04:06:47.852Z,97648.13
2019-01-25T04:09:19.342Z,97648.13
2019-01-25T04:11:50.661Z,97648.60
2019-01-25T04:14:21.993Z,97644.64
2019-01-25T04:16:53.399Z,97645.14
2019-01-25T04:19:25.298Z,97645.00
2019-01-25T04:21:56.474Z,97644.00
2019-01-25T04:24:28.087Z,97644.52
2019-01-25T04:26:59.394Z,97652.58
2019-01-25T04:29:30.701Z,97640.88
2019-01-25T04:32:02.094Z,97641.53
2019-01-25T04:34:33.491Z,97652.23
2019-01-25T04:37:06.339Z,97648.10
2019-01-25T04:39:37.687Z,97650.03
2019-01-25T04:42:08.889Z,97651.55
2019-01-25T04:44:41.150Z,97660.81
2019-01-25T04:47:13.245Z,97662.96
2019-01-25T04:49:46.298Z,97679.27
2019-01-25T04:52:17.428Z,97671.53
2019-01-25T04:54:48.724Z,97668.72
2019-01-25T04:57:19.839Z,97677.01
2019-01-25T04:59:51.129Z,97676.81
2019-01-25T05:02:22.265Z,97672.84
2019-01-25T05:04:53.514Z,97670.04
2019-01-25T05:07:24.638Z,97683.41
2019-01-25T05:09:55.790Z,97678.47
2019-01-25T05:12:29.014Z,97687.34
2019-01-25T05:15:00.189Z,97689.25
2019-01-25T05:17:31.630Z,97695.22
2019-01-25T05:20:03.076Z,97697.48
2019-01-25T05:22:34.201Z,97695.56
2019-01-25T05:25:07.632Z,97688.31
2019-01-25T05:27:38.955Z,97703.02
2019-01-25T05:30:11.783Z,97706.29
2019-01-25T05:32:42.995Z,97701.05
2019-01-25T05:35:15.807Z,97701.39
2019-01-25T05:37:47.165Z,97704.72
2019-01-25T05:40:24.503Z,97707.01
2019-01-25T05:42:55.680Z,97699.72
2019-01-25T05:45:26.699Z,97701.88
2019-01-25T05:47:58.199Z,97705.49
2019-01-25T05:50:29.662Z,97706.78
2019-01-25T05:53:00.919Z,97706.58
2019-01-25T05:55:32.212Z,97708.38
2019-01-25T05:58:04.508Z,97707.58
2019-01-25T06:00:40.028Z,97721.39
2019-01-25T06:03:13.280Z,97712.56
2019-01-25T06:05:45.189Z,97710.99
2019-01-25T06:08:33.964Z,97720.74
2019-01-25T06:11:10.650Z,97717.89
2019-01-25T06:13:46.221Z,97712.39
2019-01-25T06:16:18.169Z,97706.45
2019-01-25T06:18:49.334Z,97717.89
2019-01-25T06:21:20.612Z,97709.54
2019-01-25T06:23:55.152Z,97727.73
2019-01-25T06:26:26.694Z,97732.56
2019-01-25T06:28:57.954Z,97729.61
2019-01-25T06:31:29.730Z,97738.67
2019-01-25T06:34:03.608Z,97737.93
2019-01-25T06:36:34.901Z,97747.28
2019-01-25T06:39:09.231Z,97744.52
2019-01-25T06:41:44.184Z,97744.78
2019-01-25T06:44:13.675Z,97748.95
2019-01-25T06:46:44.830Z,97752.28
2019-01-25T06:49:17.080Z,97744.99
2019-01-25T06:51:48.568Z,97757.73
2019-01-25T06:54:19.775Z,97759.88
2019-01-25T06:56:51.143Z,97769.29
2019-01-25T06:59:25.376Z,97765.20
2019-01-25T07:02:04.608Z,97759.45
2019-01-25T07:04:35.806Z,97756.55
2019-01-25T07:07:15.036Z,97754.23
2019-01-25T07:09:46.662Z,97754.53
2019-01-25T07:12:18.517Z,97753.70
2019-01-25T07:14:49.816Z,97747.41
2019-01-25T07:17:22.655Z,97754.48
2019-01-25T07:19:54.160Z,97759.16
2019-01-25T07:22:25.685Z,97755.38
2019-01-25T07:24:58.718Z,97761.92
2019-01-25T07:27:31.684Z,97761.34
2019-01-25T07:30:02.867Z,97764.69
2019-01-25T07:32:35.330Z,97763.77
2019-01-25T07:35:07.641Z,97761.03
2019-01-25T07:37:39.085Z,97763.84
2019-01-25T07:40:10.331Z,97770.48
2019-01-25T07:42:42.313Z,97768.36
2019-01-25T07:45:14.103Z,97772.87
2019-01-25T07:47:45.427Z,97780.86
2019-01-25T07:50:16.797Z,97785.18
2019-01-25T07:52:48.427Z,97774.80
2019-01-25T08:10:27.522Z,97787.98
2019-01-25T08:12:58.931Z,97776.63
2019-01-25T08:15:30.650Z,97776.98
2019-01-25T08:18:01.794Z,97777.61
2019-01-25T08:20:33.136Z,97780.87
2019-01-25T08:23:04.775Z,97776.49
2019-01-25T08:25:37.479Z,97782.43
2019-01-25T08:28:09.266Z,97795.95
2019-01-25T08:30:40.725Z,97800.52
2019-01-25T08:33:12.281Z,97799.38
2019-01-25T08:35:43.618Z,97801.74
2019-01-25T08:38:15.366Z,97806.94
2019-01-25T08:40:46.473Z,97809.48
2019-01-25T08:43:17.817Z,97811.05
2019-01-25T08:45:50.381Z,97809.70
2019-01-25T08:48:22.215Z,97812.92
2019-01-25T08:50:53.616Z,97819.52
2019-01-25T08:53:24.997Z,97824.31
2019-01-25T08:55:57.587Z,97825.23
2019-01-25T08:58:28.897Z,97826.99
2019-01-25T09:01:00.359Z,97834.25
2019-01-25T09:03:32.087Z,97838.56
2019-01-25T09:06:03.615Z,97840.59
2019-01-25T09:08:35.063Z,97849.91
2019-01-25T09:11:06.469Z,97842.52
2019-01-25T09:13:37.819Z,97853.24
2019-01-25T09:16:11.521Z,97856.31
2019-01-25T09:18:42.781Z,97852.29
2019-01-25T09:21:14.137Z,97848.20
2019-01-25T09:23:46.833Z,97857.77
2019-01-25T09:26:18.172Z,97856.78
2019-01-25T09:28:50.056Z,97863.84
2019-01-25T09:31:21.329Z,97862.66
2019-01-25T09:33:52.748Z,97846.88
2019-01-25T09:36:26.116Z,97848.20
2019-01-25T09:38:57.628Z,97847.02
2019-01-25T09:41:29.659Z,97847.55
2019-01-25T09:44:01.285Z,97849.47
2019-01-25T09:46:32.360Z,97843.77
2019-01-25T09:49:03.949Z,97853.19
2019-01-25T09:51:36.714Z,97855.81
2019-01-25T09:54:07.980Z,97850.27
2019-01-25T09:56:39.266Z,97850.22
2019-01-25T09:59:10.541Z,97855.33
2019-01-25T10:01:41.832Z,97840.89
2019-01-25T10:04:13.413Z,97834.91
2019-01-25T10:06:44.842Z,97830.19
2019-01-25T10:09:16.006Z,97833.21
2019-01-25T10:11:47.097Z,97826.30
2019-01-25T10:14:19.785Z,97828.56
2019-01-25T10:16:50.905Z,97830.22
2019-01-25T10:19:22.169Z,97828.42
2019-01-25T10:21:53.426Z,97827.16
2019-01-25T10:24:24.891Z,97831.58
2019-01-25T10:26:57.531Z,97832.78
2019-01-25T10:29:30.963Z,97826.50
2019-01-25T10:32:02.395Z,97821.28
2019-01-25T10:34:33.506Z,97827.72
2019-01-25T10:37:05.308Z,97827.67
2019-01-25T10:39:37.453Z,97821.92
2019-01-25T10:42:08.639Z,97821.48
2019-01-25T10:44:41.705Z,97826.23
2019-01-25T10:47:12.808Z,97814.30
2019-01-25T10:49:44.141Z,97831.46
2019-01-25T10:52:15.542Z,97826.87
2019-01-25T10:54:46.780Z,97825.25
2019-01-25T10:57:18.664Z,97829.91
2019-01-25T10:59:49.995Z,97836.52
2019-01-25T11:02:21.147Z,97827.95
2019-01-25T11:04:52.335Z,97846.58
2019-01-25T11:07:23.507Z,97845.44
2019-01-25T11:09:54.650Z,97842.80
2019-01-25T11:12:25.911Z,97843.01
2019-01-25T11:14:57.717Z,97843.32
2019-01-25T11:17:36.251Z,97840.86
2019-01-25T11:20:02.215Z,97852.42
2019-01-25T11:22:33.827Z,97846.41
2019-01-25T11:25:06.128Z,97838.83
2019-01-25T11:27:38.673Z,97831.75
2019-01-25T11:33:27.104Z,97831.11
2019-01-25T11:36:00.161Z,97837.25
2019-01-25T11:38:31.798Z,97841.49
2019-01-25T11:41:03.182Z,97855.84
2019-01-25T11:43:34.546Z,97852.38
2019-01-25T11:46:05.861Z,97865.58
2019-01-25T11:48:37.951Z,97858.65
2019-01-25T11:51:08.994Z,97858.97
2019-01-25T11:53:42.617Z,97880.59
2019-01-25T11:56:13.992Z,97875.16
2019-01-25T11:58:45.238Z,97878.95
2019-01-25T12:01:16.587Z,97856.67
2019-01-25T12:03:47.730Z,97862.66
2019-01-25T12:06:18.993Z,97863.48
2019-01-25T12:08:51.592Z,97860.82
2019-01-25T12:11:22.951Z,97866.43
2019-01-25T12:13:53.986Z,97872.87
2019-01-25T12:16:25.071Z,97862.64
2019-01-25T12:18:56.551Z,97873.20
2019-01-25T12:21:27.632Z,97886.71
2019-01-25T12:23:58.625Z,97888.98
2019-01-25T12:26:30.093Z,97883.58
2019-01-25T12:29:02.689Z,97869.53
2019-01-25T12:31:34.191Z,97870.56
2019-01-25T12:34:05.996Z,97876.84
2019-01-25T12:36:37.827Z,97870.23
2019-01-25T12:39:10.122Z,97870.22
2019-01-25T12:41:41.833Z,97882.77
2019-01-25T12:44:13.089Z,97867.12
2019-01-25T12:46:44.201Z,97877.62
2019-01-25T12:49:17.400Z,97880.27
2019-01-25T12:51:58.612Z,97873.98
2019-01-25T12:54:29.987Z,97860.80
2019-01-25T12:57:01.706Z,97890.36
2019-01-25T12:59:32.760Z,97881.59
2019-01-25T13:02:03.999Z,97889.89
2019-01-25T13:04:36.787Z,97881.94
2019-01-25T13:07:10.379Z,97870.39
2019-01-25T13:09:41.669Z,97869.91
2019-01-25T13:12:12.983Z,97884.24
2019-01-25T13:14:44.358Z,97883.75
2019-01-25T13:17:15.505Z,97897.31
2019-01-25T13:19:47.578Z,97883.45
2019-01-25T13:22:18.811Z,97884.31
2019-01-25T13:24:50.012Z,97906.07
2019-01-25T13:27:21.289Z,97909.94
2019-01-25T13:29:52.397Z,97913.37
2019-01-25T13:32:23.639Z,97920.80
2019-01-25T13:34:55.068Z,97914.52
2019-01-25T13:37:31.314Z,97917.27
2019-01-25T13:39:59.389Z,97922.94
2019-01-25T13:42:30.445Z,97926.44
2019-01-25T13:45:02.666Z,97934.66
2019-01-25T13:47:33.857Z,97928.84
2019-01-25T13:50:06.520Z,97932.70
2019-01-25T13:52:37.872Z,97939.14
2019-01-25T13:55:11.552Z,97934.69
2019-01-25T13:57:44.107Z,97939.62
2019-01-25T14:00:24.636Z,97945.45
2019-01-25T14:02:56.004Z,97940.59
2019-01-25T14:05:29.116Z,97941.27
2019-01-25T14:08:01.713Z,97955.80
2019-01-25T14:10:34.935Z,97949.36
2019-01-25T14:13:06.868Z,97956.14
2019-01-25T14:15:38.144Z,97955.69
2019-01-25T14:18:09.151Z,97961.31
2019-01-25T14:20:40.297Z,97954.02
2019-01-25T14:23:11.437Z,97965.91
2019-01-25T14:25:42.629Z,97951.23
2019-01-25T14:28:15.339Z,97951.92
2019-01-25T14:30:46.503Z,97942.70
2019-01-25T14:33:17.955Z,97950.14
2019-01-25T14:35:49.330Z,97954.12
2019-01-25T14:38:20.803Z,97960.86
2019-01-25T14:40:53.138Z,97952.55
2019-01-25T14:43:24.777Z,97955.69
2019-01-25T14:45:56.747Z,97954.34
2019-01-25T14:48:28.189Z,97952.88
2019-01-25T14:51:00.019Z,97961.43
2019-01-25T14:53:31.697Z,97958.30
2019-01-25T14:56:03.657Z,97958.55
2019-01-25T14:58:34.817Z,97965.59
2019-01-25T15:01:06.012Z,97954.23
2019-01-25T15:03:37.444Z,97967.75
2019-01-25T15:06:09.010Z,97958.81
2019-01-25T15:08:40.370Z,97952.52
2019-01-25T15:11:11.567Z,97955.87
2019-01-25T15:13:43.045Z,97963.09
2019-01-25T15:16:14.003Z,97960.97
2019-01-25T15:18:46.741Z,97978.53
2019-01-25T15:21:18.831Z,97976.91
2019-01-25T15:23:50.250Z,97978.71
2019-01-25T15:26:21.286Z,97978.01
2019-01-25T15:28:52.449Z,97969.83
2019-01-25T15:31:24.435Z,97974.41
2019-01-25T15:33:55.633Z,97971.42
2019-01-25T15:36:27.160Z,97972.73
2019-01-25T15:38:59.084Z,97979.52
2019-01-25T15:41:30.322Z,97977.66
2019-01-25T15:44:01.770Z,97980.43
2019-01-25T15:46:35.845Z,97978.94
2019-01-25T15:49:07.807Z,97985.36
2019-01-25T15:51:38.917Z,97979.95
2019-01-25T15:54:10.085Z,97979.45
2019-01-25T15:56:41.492Z,97983.25
2019-01-25T15:59:12.580Z,97979.81
2019-01-25T16:01:43.890Z,97985.53
2019-01-25T16:04:16.899Z,97984.09
2019-01-25T16:06:49.724Z,97987.87
2019-01-25T16:09:23.673Z,97990.91
2019-01-25T16:11:56.696Z,97991.70
2019-01-25T16:14:30.545Z,97993.86
2019-01-25T16:17:02.193Z,97994.35
2019-01-25T16:19:33.228Z,97999.20
2019-01-25T16:22:04.674Z,97999.38
2019-01-25T16:24:35.817Z,98002.66
2019-01-25T16:27:07.187Z,98002.75
2019-01-25T16:29:38.294Z,97994.35
2019-01-25T16:32:09.644Z,98000.65
2019-01-25T16:34:41.807Z,98015.65
2019-01-25T16:37:14.124Z,97999.55
2019-01-25T16:39:45.378Z,98000.38
2019-01-25T16:42:19.250Z,98006.81
2019-01-25T16:44:50.403Z,98010.08
2019-01-25T16:47:21.639Z,98002.19
2019-01-25T16:49:52.793Z,98006.68
2019-01-25T16:52:23.854Z,98011.08
2019-01-25T16:54:55.042Z,98006.86
2019-01-25T16:57:26.208Z,98009.94
2019-01-25T16:59:59.631Z,98007.95
2019-01-25T17:02:30.624Z,98007.66
2019-01-25T17:05:03.595Z,98006.20
2019-01-25T17:07:34.929Z,98003.87
2019-01-25T17:10:08.669Z,98006.33
2019-01-25T17:12:39.731Z,98003.68
2019-01-25T17:15:11.160Z,98006.95
2019-01-25T17:17:42.168Z,98004.61
2019-01-25T17:20:19.120Z,98000.81
2019-01-25T17:22:48.497Z,98004.34
2019-01-25T17:25:19.821Z,97999.20
2019-01-25T17:27:52.779Z,98007.16
2019-01-25T17:30:26.046Z,98013.59
2019-01-25T17:32:58.536Z,98012.59
2019-01-25T17:35:31.508Z,98019.19
2019-01-25T17:38:03.280Z,98010.47
2019-01-25T17:40:46.684Z,98008.84
2019-01-25T17:43:18.379Z,98011.92
2019-01-25T17:45:50.183Z,98013.11
2019-01-25T17:48:21.373Z,98018.92
2019-01-25T17:50:52.607Z,98021.73
2019-01-25T17:53:23.861Z,98018.26
2019-01-25T17:55:54.954Z,98019.09
2019-01-25T17:58:26.954Z,98034.11
2019-01-25T18:00:58.445Z,98029.01
2019-01-25T18:03:31.119Z,98041.42
2019-01-25T18:06:03.642Z,98033.81
2019-01-25T18:08:35.050Z,98027.86
2019-01-25T18:11:06.496Z,98026.76
2019-01-25T18:13:37.988Z,98032.27
2019-01-25T18:16:09.310Z,98038.21
2019-01-25T18:18:42.286Z,98034.37
2019-01-25T18:21:13.285Z,98033.89
2019-01-25T18:23:44.569Z,98033.28
2019-01-25T18:26:25.840Z,98038.87
2019-01-25T18:29:19.918Z,98040.13
2019-01-25T18:31:50.956Z,98042.65
2019-01-25T18:34:22.193Z,98037.80
2019-01-25T18:36:53.355Z,98040.09
2019-01-25T18:39:25.764Z,98042.59
2019-01-25T18:41:56.938Z,98042.73
2019-01-25T18:44:27.954Z,98040.39
2019-01-25T18:47:00.005Z,98040.75
2019-01-25T18:49:31.076Z,98050.05
2019-01-25T18:52:02.369Z,98051.00
2019-01-25T18:54:33.334Z,98051.44
2019-01-25T18:57:04.539Z,98045.84
2019-01-25T18:59:35.988Z,98050.17
2019-01-25T19:02:07.373Z,98056.94
2019-01-25T19:04:39.070Z,98057.42
2019-01-25T19:07:10.334Z,98037.39
2019-01-25T19:09:41.425Z,98049.98
2019-01-25T19:12:12.746Z,98057.86
2019-01-25T19:14:43.986Z,98054.39
2019-01-25T19:17:15.992Z,98053.91
2019-01-25T19:19:47.087Z,98050.11
2019-01-25T19:22:19.635Z,98051.96
2019-01-25T19:24:51.144Z,98062.66
2019-01-25T19:27:22.450Z,98044.25
2019-01-25T19:29:53.655Z,98060.98
2019-01-25T19:32:24.990Z,98031.70
2019-01-25T19:34:55.978Z,98038.65
2019-01-25T19:37:30.049Z,98040.69
2019-01-25T19:40:01.540Z,98038.34
2019-01-25T19:42:33.268Z,98030.26
2019-01-25T19:45:11.703Z,98040.29
2019-01-25T19:47:38.851Z,98034.34
2019-01-25T19:50:12.647Z,98031.56
2019-01-25T19:52:44.249Z,98034.33
2019-01-25T19:55:18.306Z,98028.65
2019-01-25T19:57:49.312Z,98025.69
2019-01-25T20:00:23.426Z,98038.36
2019-01-25T20:02:54.788Z,98038.42
2019-01-25T20:05:27.206Z,98042.38
2019-01-25T20:07:58.619Z,98041.23
2019-01-25T20:10:29.896Z,98022.75
2019-01-25T20:13:01.597Z,98027.02
2019-01-25T20:15:33.106Z,98023.05
2019-01-25T20:18:04.836Z,98021.03
2019-01-25T20:20:36.445Z,98027.02
2019-01-25T20:23:08.143Z,98024.80
2019-01-25T20:25:40.703Z,98027.33
2019-01-25T20:28:12.187Z,98027.98
2019-01-25T20:30:49.560Z,98042.15
2019-01-25T20:33:17.497Z,98022.03
2019-01-25T20:35:48.855Z,98021.85
2019-01-25T20:38:21.397Z,98027.61
2019-01-25T20:40:52.684Z,98050.19
2019-01-25T20:43:24.193Z,98050.67
2019-01-25T20:45:55.363Z,98054.42
2019-01-25T20:48:27.963Z,98046.02
2019-01-25T20:50:59.264Z,98065.66
2019-01-25T20:53:31.857Z,98055.94
2019-01-25T20:56:02.974Z,98056.87
2019-01-25T20:58:34.282Z,98047.39
2019-01-25T21:01:05.596Z,98048.39
2019-01-25T21:03:37.019Z,98040.66
2019-01-25T21:06:09.705Z,98035.37
2019-01-25T21:08:40.865Z,98053.36
2019-01-25T21:11:12.024Z,98049.70
2019-01-25T21:13:43.566Z,98027.57
2019-01-25T21:16:14.916Z,98030.34
2019-01-25T21:18:46.437Z,98037.11
2019-01-25T21:21:18.162Z,98029.67
2019-01-25T21:23:49.240Z,98029.84
2019-01-25T21:26:21.435Z,98029.97
2019-01-25T21:28:53.796Z,98029.30
2019-01-25T21:31:25.388Z,98028.28
2019-01-25T21:33:56.364Z,98021.98
2019-01-25T21:36:27.501Z,98014.61
2019-01-25T21:38:58.849Z,98021.88
2019-01-25T21:41:30.051Z,98028.30
2019-01-25T21:44:01.166Z,98008.03
2019-01-25T21:46:39.833Z,98007.06
2019-01-25T21:49:05.422Z,98016.11
2019-01-25T21:51:36.730Z,98014.98
2019-01-25T21:54:08.991Z,98014.98
2019-01-25T21:56:40.100Z,98016.11
2019-01-25T21:59:11.600Z,98009.23
2019-01-25T22:01:42.750Z,98022.59
2019-01-25T22:04:14.831Z,98001.86
2019-01-25T22:06:47.143Z,98013.55
2019-01-25T22:09:18.430Z,98007.61
2019-01-25T22:11:49.653Z,98008.27
2019-01-25T22:14:21.223Z,98014.33
2019-01-25T22:16:53.633Z,98016.48
2019-01-25T22:19:24.883Z,98010.37
2019-01-25T22:21:56.193Z,98018.94
2019-01-25T22:24:29.104Z,98010.00
2019-01-25T22:27:00.922Z,98010.13
2019-01-25T22:29:32.663Z,98011.43
2019-01-25T22:32:03.826Z,98010.48
2019-01-25T22:34:35.137Z,98006.17
2019-01-25T22:37:06.541Z,98002.56
2019-01-25T22:39:38.941Z,98010.13
2019-01-25T22:42:10.381Z,98014.73
2019-01-25T22:44:42.941Z,98002.08
2019-01-25T22:47:20.237Z,97999.92
2019-01-25T22:49:47.048Z,98009.46
2019-01-25T22:52:18.266Z,97999.58
2019-01-25T22:54:49.488Z,98001.01
2019-01-25T22:57:20.613Z,97988.00
2019-01-25T22:59:51.798Z,97987.88
2019-01-25T23:02:23.160Z,97993.98
2019-01-25T23:05:05.956Z,97989.19
2019-01-25T23:07:37.165Z,98005.20
2019-01-25T23:10:16.893Z,97993.81
2019-01-25T23:12:48.508Z,97973.25
2019-01-25T23:15:21.656Z,97990.75
2019-01-25T23:17:52.591Z,97985.66
2019-01-25T23:20:23.592Z,97990.77
2019-01-25T23:22:54.671Z,97975.82
2019-01-25T23:25:26.155Z,97977.75
2019-01-25T23:27:57.270Z,97985.42
2019-01-25T23:30:28.331Z,97982.72
2019-01-25T23:32:59.455Z,97971.88
2019-01-25T23:35:30.626Z,97965.45
2019-01-25T23:38:02.185Z,97975.16
2019-01-25T23:40:34.792Z,97965.75
2019-01-25T23:43:07.070Z,97960.81
2019-01-25T23:45:38.650Z,97966.58
2019-01-25T23:48:09.769Z,97957.05
2019-01-25T23:50:42.687Z,97952.91
2019-01-25T23:53:13.734Z,97945.34
2019-01-25T23:55:44.752Z,97936.73
2019-01-25T23:58:16.269Z,97935.78
